Time;durP1;ratioP1;P1;durP2;ratioP2;P2;SDS_P1;SDS_P2;PMS_P1;PMS_P2;Temp;Humidity;BMP_temperature;BMP_pressure;BME280_temperature;BME280_humidity;BME280_pressure;Samples;Min_cycle;Max_cycle;Signal;HPM_P1;HPM_P2
2023/01/11 00:02:24;;;;;;;2.75;1.38;;;;;;;5.64;100.00;100026.47;6149895;28;20043;-84
2023/01/11 00:05:26;;;;;;;2.33;1.20;;;;;;;5.61;100.00;100043.75;6156498;28;20186;-84
2023/01/11 00:08:28;;;;;;;3.83;1.10;;;;;;;5.67;100.00;100050.19;6145676;28;20054;-84
2023/01/11 00:11:29;;;;;;;3.22;1.02;;;;;;;5.66;100.00;100050.28;6140044;28;20381;-84
2023/01/11 00:14:31;;;;;;;2.88;1.27;;;;;;;5.65;100.00;100044.34;6165637;28;20035;-84
2023/01/11 00:17:33;;;;;;;2.90;2.10;;;;;;;5.68;100.00;100033.88;6164038;28;20051;-85
2023/01/11 00:20:38;;;;;;;2.25;1.10;;;;;;;5.71;100.00;100018.25;6155535;28;20045;-84
2023/01/11 00:23:40;;;;;;;1.50;1.02;;;;;;;5.75;100.00;100024.81;6164302;28;20042;-84
2023/01/11 00:26:41;;;;;;;2.17;1.05;;;;;;;5.72;100.00;100019.91;6162277;28;20078;-84
2023/01/11 00:29:43;;;;;;;2.17;1.05;;;;;;;5.70;100.00;100013.22;6177256;28;20082;-85
2023/01/11 00:32:46;;;;;;;4.82;1.25;;;;;;;5.65;100.00;100005.00;6156296;28;20054;-84
2023/01/11 00:35:50;;;;;;;2.67;1.00;;;;;;;5.71;100.00;99995.13;6157617;28;20125;-85
2023/01/11 00:38:54;;;;;;;1.98;1.10;;;;;;;5.81;100.00;99996.19;6161502;28;20046;-85
2023/01/11 00:48:36;;;;;;;1.38;0.90;;;;;;;5.93;100.00;99980.84;6158464;28;20050;-84
2023/01/11 00:51:38;;;;;;;1.35;0.90;;;;;;;5.90;100.00;100012.69;6160831;28;20520;-84
2023/01/11 00:54:41;;;;;;;1.40;1.15;;;;;;;5.91;100.00;100003.25;6161077;28;20038;-84
2023/01/11 00:57:43;;;;;;;4.55;1.00;;;;;;;5.92;100.00;100016.00;6157675;28;20042;-84
2023/01/11 01:00:44;;;;;;;1.13;0.88;;;;;;;5.91;100.00;100016.91;6150994;28;20135;-85
2023/01/11 01:03:46;;;;;;;5.35;1.85;;;;;;;5.89;100.00;100005.94;6155854;28;20743;-85
2023/01/11 01:06:48;;;;;;;1.05;0.95;;;;;;;5.88;100.00;100009.41;6146467;28;20055;-84
2023/01/11 01:09:50;;;;;;;1.08;0.80;;;;;;;5.91;100.00;100027.19;6153542;28;21157;-84
2023/01/11 01:16:12;;;;;;;1.87;0.80;;;;;;;6.00;100.00;99997.53;6157853;28;20059;-85
2023/01/11 01:19:14;;;;;;;2.38;0.90;;;;;;;6.04;100.00;100004.09;6156384;28;20594;-85
2023/01/11 01:22:16;;;;;;;1.70;0.90;;;;;;;6.04;100.00;99993.81;6155560;28;20062;-85
2023/01/11 01:25:18;;;;;;;3.22;1.00;;;;;;;6.03;100.00;99982.69;6163866;28;20050;-85
2023/01/11 01:28:20;;;;;;;1.25;0.88;;;;;;;5.98;100.00;99981.38;6160607;28;20050;-85
2023/01/11 01:31:23;;;;;;;5.03;1.00;;;;;;;5.92;100.00;99980.03;6152735;28;20054;-84
2023/01/11 01:34:24;;;;;;;1.98;1.10;;;;;;;5.98;100.00;99968.53;6160835;28;20086;-84
2023/01/11 01:37:27;;;;;;;1.58;0.98;;;;;;;5.98;100.00;99973.69;6162274;28;20420;-85
2023/01/11 01:40:30;;;;;;;2.28;1.10;;;;;;;5.92;100.00;99964.63;6151787;28;20125;-85
2023/01/11 01:44:24;;;;;;;1.55;1.02;;;;;;;5.91;100.00;99968.09;6155609;28;20051;-84
2023/01/11 01:48:04;;;;;;;2.70;0.93;;;;;;;5.87;100.00;99973.56;6129675;28;20171;-84
2023/01/11 01:51:09;;;;;;;1.50;1.00;;;;;;;5.83;100.00;99960.09;6128801;28;20134;-85
2023/01/11 01:54:17;;;;;;;2.65;0.93;;;;;;;5.80;100.00;99958.56;6135502;28;20051;-84
2023/01/11 01:57:23;;;;;;;1.35;0.90;;;;;;;5.78;100.00;99952.72;6132780;28;20634;-85
2023/01/11 02:00:25;;;;;;;2.40;1.10;;;;;;;5.71;100.00;99948.91;6126075;28;20055;-85
2023/01/11 02:03:27;;;;;;;1.08;1.00;;;;;;;5.70;100.00;99955.00;6134492;28;20066;-84
2023/01/11 02:06:29;;;;;;;3.03;1.30;;;;;;;5.69;100.00;99937.09;6120527;29;20249;-85
2023/01/11 02:09:51;;;;;;;2.90;1.00;;;;;;;5.73;100.00;99935.97;6134064;28;20051;-85
2023/01/11 02:13:00;;;;;;;2.55;1.00;;;;;;;5.85;100.00;99942.03;6135904;28;20106;-85
2023/01/11 02:16:08;;;;;;;2.17;0.80;;;;;;;5.93;100.00;99935.44;6118957;28;20058;-85
2023/01/11 02:19:27;;;;;;;1.10;1.00;;;;;;;5.99;100.00;99913.69;6133068;28;20425;-85
2023/01/11 02:22:51;;;;;;;2.85;1.30;;;;;;;6.00;100.00;99916.13;6138752;28;20622;-85
2023/01/11 02:26:30;;;;;;;1.48;0.80;;;;;;;5.96;100.00;99909.59;6161667;28;20129;-85
2023/01/11 02:30:09;;;;;;;1.33;1.02;;;;;;;5.91;100.00;99918.47;6157940;28;20160;-84
2023/01/11 02:33:56;;;;;;;1.52;0.90;;;;;;;5.91;100.00;99913.34;6158630;28;20556;-84
2023/01/11 02:36:57;;;;;;;2.42;1.10;;;;;;;5.95;100.00;99902.78;6155259;28;20137;-84
2023/01/11 02:40:20;;;;;;;3.40;1.17;;;;;;;6.12;100.00;99883.63;6159485;28;20129;-85
2023/01/11 02:47:02;;;;;;;1.00;0.90;;;;;;;6.11;100.00;99879.44;6153884;28;20572;-85
2023/01/11 02:50:41;;;;;;;2.55;0.95;;;;;;;6.12;100.00;99888.75;6158803;28;20065;-85
2023/01/11 02:54:04;;;;;;;4.43;1.00;;;;;;;6.20;100.00;99863.34;6149765;28;20046;-85
2023/01/11 02:57:10;;;;;;;2.25;1.02;;;;;;;6.21;100.00;99872.69;6166208;28;20061;-85
2023/01/11 03:00:15;;;;;;;2.67;1.10;;;;;;;6.23;100.00;99877.72;6162105;28;20512;-85
2023/01/11 03:03:38;;;;;;;1.40;1.20;;;;;;;6.24;100.00;99864.75;6157200;28;20046;-84
2023/01/11 03:06:40;;;;;;;1.40;1.17;;;;;;;6.31;100.00;99872.88;6156077;28;20030;-84
2023/01/11 03:10:10;;;;;;;2.28;1.10;;;;;;;6.32;100.00;99864.22;6156663;28;20532;-84
2023/01/11 03:13:27;;;;;;;1.75;1.20;;;;;;;6.35;100.00;99852.88;6173147;28;20047;-84
2023/01/11 03:17:04;;;;;;;1.10;1.00;;;;;;;6.41;100.00;99840.44;6159007;28;20050;-84
2023/01/11 03:20:28;;;;;;;2.05;1.17;;;;;;;6.45;100.00;99861.56;6160441;28;20139;-84
2023/01/11 03:23:40;;;;;;;0.88;0.82;;;;;;;6.43;100.00;99830.84;6154897;28;20046;-85
2023/01/11 03:26:51;;;;;;;1.20;1.00;;;;;;;6.43;100.00;99843.72;6145424;28;20046;-85
2023/01/11 03:30:13;;;;;;;1.38;1.13;;;;;;;6.54;100.00;99853.19;6150707;28;20254;-84
2023/01/11 03:33:27;;;;;;;1.63;0.93;;;;;;;6.59;100.00;99858.00;6148750;28;20134;-85
2023/01/11 03:36:41;;;;;;;2.03;1.40;;;;;;;6.62;100.00;99834.63;6159748;28;20051;-85
2023/01/11 03:40:39;;;;;;;1.15;1.05;;;;;;;6.64;100.00;99836.16;6158445;28;20047;-85
2023/01/11 03:43:45;;;;;;;1.35;1.00;;;;;;;6.67;100.00;99827.41;6114298;28;20980;-85
2023/01/11 03:46:51;;;;;;;1.10;1.00;;;;;;;6.67;100.00;99825.66;6159968;28;20679;-85
2023/01/11 03:50:00;;;;;;;3.30;1.45;;;;;;;6.66;100.00;99815.50;6156972;28;20043;-85
2023/01/11 03:53:05;;;;;;;1.98;1.02;;;;;;;6.67;100.00;99794.78;6158410;28;20394;-85
2023/01/11 03:56:11;;;;;;;1.20;1.10;;;;;;;6.73;100.00;99808.13;6158433;28;20058;-85
2023/01/11 03:59:13;;;;;;;1.30;1.15;;;;;;;6.71;100.00;99817.69;6160605;28;20463;-85
2023/01/11 04:02:17;;;;;;;1.80;1.27;;;;;;;6.69;100.00;99820.41;6155678;28;20054;-85
2023/01/11 04:05:19;;;;;;;2.17;1.05;;;;;;;6.70;100.00;99834.88;6143339;28;20058;-85
2023/01/11 04:08:21;;;;;;;1.20;1.10;;;;;;;6.73;100.00;99841.56;6150887;28;20086;-84
2023/01/11 04:11:22;;;;;;;2.22;1.27;;;;;;;6.79;100.00;99841.13;6159392;28;20090;-84
2023/01/11 04:14:24;;;;;;;1.77;1.00;;;;;;;6.82;100.00;99836.53;6158773;28;20525;-84
2023/01/11 04:17:26;;;;;;;1.95;1.00;;;;;;;6.77;100.00;99843.78;6153146;28;20054;-85
2023/01/11 04:20:28;;;;;;;2.75;1.23;;;;;;;6.77;100.00;99851.50;6168978;28;20141;-84
2023/01/11 04:23:29;;;;;;;1.10;0.98;;;;;;;6.85;100.00;99856.06;6163131;28;20051;-85
2023/01/11 04:26:32;;;;;;;1.75;1.38;;;;;;;6.85;100.00;99863.78;6166074;28;20434;-84
2023/01/11 04:29:33;;;;;;;1.27;0.80;;;;;;;6.86;100.00;99850.00;6155092;28;20594;-84
2023/01/11 04:32:35;;;;;;;2.20;0.80;;;;;;;6.93;100.00;99843.44;6166283;28;20692;-85
2023/01/11 04:35:37;;;;;;;1.33;0.90;;;;;;;6.98;100.00;99848.25;6179341;28;20046;-84
2023/01/11 04:38:38;;;;;;;0.68;0.68;;;;;;;6.95;100.00;99846.72;6167202;28;20049;-84
2023/01/11 04:45:04;;;;;;;2.15;1.13;;;;;;;7.06;100.00;99841.63;6165093;28;20117;-85
2023/01/11 04:48:06;;;;;;;3.58;1.00;;;;;;;7.06;100.00;99843.38;6161397;28;20503;-85
2023/01/11 04:51:08;;;;;;;2.67;1.00;;;;;;;7.08;100.00;99820.91;6163616;28;20051;-85
2023/01/11 04:54:10;;;;;;;1.92;0.90;;;;;;;7.05;100.00;99828.84;6162489;28;20047;-85
2023/01/11 04:57:15;;;;;;;1.83;1.08;;;;;;;7.07;100.00;99830.38;6166205;28;20050;-84
2023/01/11 05:00:17;;;;;;;1.30;0.98;;;;;;;6.97;100.00;99826.06;6165854;28;20045;-84
2023/01/11 05:03:19;;;;;;;1.30;1.00;;;;;;;6.91;100.00;99827.34;6154792;28;20045;-84
2023/01/11 05:06:23;;;;;;;3.40;0.98;;;;;;;6.87;100.00;99813.88;6160487;28;20393;-84
2023/01/11 05:09:25;;;;;;;1.15;0.98;;;;;;;6.82;100.00;99826.25;6151793;28;20572;-84
2023/01/11 05:12:27;;;;;;;1.40;1.10;;;;;;;6.72;100.00;99830.44;6158682;28;20049;-83
2023/01/11 05:15:28;;;;;;;2.20;0.98;;;;;;;6.65;100.00;99840.38;6164014;28;20034;-84
2023/01/11 05:18:30;;;;;;;1.45;1.00;;;;;;;6.64;100.00;99840.50;6164419;28;20035;-83
2023/01/11 05:21:35;;;;;;;1.77;1.15;;;;;;;6.61;100.00;99833.00;6162874;28;20350;-84
2023/01/11 05:24:37;;;;;;;1.23;1.10;;;;;;;6.61;100.00;99851.00;6156838;28;20428;-84
2023/01/11 05:27:38;;;;;;;1.40;1.00;;;;;;;6.59;100.00;99858.00;6154847;28;20034;-83
2023/01/11 05:30:40;;;;;;;2.45;1.00;;;;;;;6.57;100.00;99857.28;6165393;28;20394;-84
2023/01/11 05:33:43;;;;;;;1.52;1.35;;;;;;;6.54;100.00;99866.06;6155059;28;20394;-84
2023/01/11 05:36:45;;;;;;;1.40;0.98;;;;;;;6.55;100.00;99859.16;6152966;28;20051;-84
2023/01/11 05:39:47;;;;;;;0.70;0.70;;;;;;;6.58;100.00;99862.31;6163083;28;20040;-84
2023/01/11 05:42:48;;;;;;;1.55;1.00;;;;;;;6.58;100.00;99869.22;6159163;28;20413;-84
2023/01/11 05:45:51;;;;;;;1.77;0.82;;;;;;;6.63;100.00;99873.09;6158141;28;20034;-84
2023/01/11 05:48:54;;;;;;;1.17;0.90;;;;;;;6.62;100.00;99870.63;6164586;28;20046;-84
2023/01/11 05:51:56;;;;;;;0.88;0.80;;;;;;;6.64;100.00;99869.59;6162682;28;20493;-84
2023/01/11 05:54:58;;;;;;;2.97;1.00;;;;;;;6.69;100.00;99871.84;6161159;28;20051;-84
2023/01/11 05:57:59;;;;;;;1.58;1.00;;;;;;;6.74;100.00;99863.78;6162436;28;20074;-84
2023/01/11 06:01:01;;;;;;;1.95;1.10;;;;;;;6.69;100.00;99867.50;6162201;28;20042;-84
2023/01/11 06:04:03;;;;;;;1.88;0.98;;;;;;;6.70;100.00;99865.75;6160024;28;20272;-84
2023/01/11 06:07:05;;;;;;;1.52;0.88;;;;;;;6.69;100.00;99874.41;6163473;28;20062;-84
2023/01/11 06:10:08;;;;;;;1.67;0.85;;;;;;;6.68;100.00;99870.19;6163301;28;20078;-84
2023/01/11 06:13:25;;;;;;;1.38;0.95;;;;;;;6.68;100.00;99875.31;6177742;28;20049;-84
2023/01/11 06:16:27;;;;;;;1.17;1.08;;;;;;;6.66;100.00;99877.22;6179483;28;20065;-84
2023/01/11 06:19:28;;;;;;;0.77;0.77;;;;;;;6.66;100.00;99872.06;6154500;28;20047;-85
2023/01/11 06:22:30;;;;;;;1.83;1.00;;;;;;;6.63;100.00;99874.84;6162545;28;20623;-85
2023/01/11 06:25:36;;;;;;;1.13;0.95;;;;;;;6.65;100.00;99866.06;6149654;28;20622;-85
2023/01/11 06:28:38;;;;;;;1.40;0.90;;;;;;;6.63;100.00;99867.97;6163844;28;20190;-85
2023/01/11 06:31:40;;;;;;;1.67;1.00;;;;;;;6.64;100.00;99871.34;6163272;28;20407;-85
2023/01/11 06:34:42;;;;;;;1.63;0.95;;;;;;;6.64;100.00;99871.34;6163029;28;20046;-86
2023/01/11 06:37:43;;;;;;;1.58;0.90;;;;;;;6.60;100.00;99873.31;6162201;28;20182;-85
2023/01/11 06:40:59;;;;;;;0.77;0.77;;;;;;;6.62;100.00;99886.06;6156892;28;20045;-85
2023/01/11 06:44:01;;;;;;;2.50;1.10;;;;;;;6.60;100.00;99888.75;6156574;28;20042;-86
2023/01/11 06:47:03;;;;;;;2.22;1.20;;;;;;;6.62;100.00;99884.31;6154862;28;20404;-86
2023/01/11 06:50:06;;;;;;;1.27;0.90;;;;;;;6.66;100.00;99890.06;6156662;28;20039;-86
2023/01/11 06:53:08;;;;;;;1.10;1.00;;;;;;;6.66;100.00;99893.44;6161516;28;20045;-86
2023/01/11 06:56:12;;;;;;;1.13;0.93;;;;;;;6.70;100.00;99886.31;6162701;28;20140;-86
2023/01/11 06:59:14;;;;;;;1.80;0.80;;;;;;;6.71;100.00;99885.41;6150767;28;20039;-87
2023/01/11 07:02:16;;;;;;;1.23;0.82;;;;;;;6.67;100.00;99881.41;6163103;28;20039;-87
2023/01/11 07:05:18;;;;;;;1.25;0.70;;;;;;;6.70;100.00;99888.88;6153778;28;20054;-87
2023/01/11 07:08:20;;;;;;;1.58;0.90;;;;;;;6.69;100.00;99887.25;6161846;28;20042;-87
2023/01/11 07:11:22;;;;;;;2.17;0.80;;;;;;;6.71;100.00;99892.28;6163407;28;20504;-87
2023/01/11 07:14:24;;;;;;;0.80;0.68;;;;;;;6.69;100.00;99893.22;6163262;28;20121;-87
2023/01/11 07:17:26;;;;;;;0.60;0.60;;;;;;;6.67;100.00;99897.66;6159707;28;20506;-87
2023/01/11 07:20:28;;;;;;;1.00;0.65;;;;;;;6.64;100.00;99891.94;6147673;28;20050;-87
2023/01/11 07:23:30;;;;;;;1.65;0.80;;;;;;;6.59;100.00;99897.41;6150616;28;20039;-87
2023/01/11 07:26:32;;;;;;;0.80;0.80;;;;;;;6.63;100.00;99898.81;6149689;28;20043;-87
2023/01/11 07:29:34;;;;;;;0.60;0.60;;;;;;;6.65;100.00;99898.69;6145466;28;20039;-87
2023/01/11 07:32:36;;;;;;;1.02;0.63;;;;;;;6.66;100.00;99903.75;6147259;28;20051;-87
2023/01/11 07:35:38;;;;;;;0.68;0.68;;;;;;;6.63;100.00;99908.25;6143456;28;20050;-87
2023/01/11 07:38:40;;;;;;;0.90;0.60;;;;;;;6.66;100.00;99908.06;6145752;28;20075;-87
2023/01/11 07:45:04;;;;;;;1.98;0.90;;;;;;;6.68;100.00;99909.59;6143051;28;20053;-87
2023/01/11 07:48:08;;;;;;;0.98;0.68;;;;;;;6.71;100.00;99916.28;6142455;28;20091;-87
2023/01/11 07:51:12;;;;;;;1.05;0.65;;;;;;;6.74;100.00;99915.22;6145422;28;20046;-87
2023/01/11 07:54:14;;;;;;;1.15;0.80;;;;;;;6.73;100.00;99922.09;6148499;28;20077;-87
2023/01/11 07:57:16;;;;;;;0.85;0.60;;;;;;;6.68;100.00;99914.75;6148444;28;20125;-87
2023/01/11 08:00:18;;;;;;;1.45;0.85;;;;;;;6.69;100.00;99908.66;6154907;28;20821;-87
2023/01/11 08:03:20;;;;;;;0.88;0.70;;;;;;;6.73;100.00;99914.38;6153065;28;20493;-86
2023/01/11 08:06:22;;;;;;;0.70;0.70;;;;;;;6.74;100.00;99921.19;6148324;28;20043;-86
2023/01/11 08:09:24;;;;;;;2.85;0.70;;;;;;;6.77;100.00;99912.41;6151095;28;20053;-87
2023/01/11 08:15:46;;;;;;;1.08;0.60;;;;;;;6.79;100.00;99897.69;6149435;28;20046;-86
2023/01/11 08:18:52;;;;;;;0.82;0.70;;;;;;;6.84;100.00;99903.31;6152311;28;20045;-87
2023/01/11 08:21:54;;;;;;;0.77;0.70;;;;;;;6.83;100.00;99928.25;6152053;28;20071;-87
2023/01/11 08:24:55;;;;;;;0.75;0.70;;;;;;;6.93;100.00;99930.13;6150501;28;20040;-86
2023/01/11 08:28:03;;;;;;;0.90;0.70;;;;;;;6.92;100.00;99938.78;6153684;28;20481;-87
2023/01/11 08:31:07;;;;;;;1.90;0.80;;;;;;;6.94;100.00;99950.59;6164882;28;20717;-87
2023/01/11 08:34:09;;;;;;;0.50;0.50;;;;;;;7.01;100.00;99935.53;6148804;28;20469;-85
2023/01/11 08:37:11;;;;;;;0.63;0.60;;;;;;;7.08;100.00;99932.41;6145844;28;20128;-85
2023/01/11 08:40:13;;;;;;;1.05;0.80;;;;;;;7.16;100.00;99928.44;6146402;28;20509;-85
2023/01/11 08:43:15;;;;;;;0.73;0.60;;;;;;;7.17;100.00;99942.94;6155252;28;20043;-85
2023/01/11 08:46:18;;;;;;;0.70;0.63;;;;;;;7.24;100.00;99944.13;6146851;28;20043;-85
2023/01/11 08:49:20;;;;;;;0.90;0.60;;;;;;;7.31;100.00;99945.31;6148217;28;20054;-85
2023/01/11 08:52:21;;;;;;;1.05;0.70;;;;;;;7.32;100.00;99952.09;6145818;28;20100;-86
2023/01/11 08:55:23;;;;;;;0.98;0.60;;;;;;;7.36;100.00;99948.34;6152085;28;20054;-86
2023/01/11 08:58:25;;;;;;;1.02;0.60;;;;;;;7.33;100.00;99951.97;6146106;28;20054;-85
2023/01/11 09:01:27;;;;;;;0.60;0.60;;;;;;;7.32;100.00;99952.09;6145947;28;20526;-89
2023/01/11 09:04:29;;;;;;;0.77;0.60;;;;;;;7.28;100.00;99955.84;6148507;28;20052;-86
2023/01/11 09:07:31;;;;;;;0.80;0.68;;;;;;;7.30;100.00;99966.81;6149160;28;20046;-86
2023/01/11 09:10:32;;;;;;;0.68;0.60;;;;;;;7.33;100.00;99962.28;6162633;28;20050;-86
2023/01/11 09:13:34;;;;;;;1.77;0.70;;;;;;;7.39;100.00;99962.75;6162902;28;20047;-86
2023/01/11 09:16:36;;;;;;;1.25;0.40;;;;;;;7.43;100.00;99967.56;6160691;28;20043;-87
2023/01/11 09:19:38;;;;;;;0.63;0.63;;;;;;;7.49;100.00;99969.66;6157395;28;20484;-86
2023/01/11 09:22:40;;;;;;;0.70;0.60;;;;;;;7.59;100.00;99969.81;6166574;28;20058;-87
2023/01/11 09:25:42;;;;;;;1.10;0.50;;;;;;;7.60;100.00;99975.75;6166160;28;20042;-86
2023/01/11 09:28:44;;;;;;;0.47;0.40;;;;;;;7.60;100.00;99976.56;6162916;28;20042;-86
2023/01/11 09:31:45;;;;;;;0.40;0.40;;;;;;;7.65;100.00;99971.09;6162695;28;20480;-86
2023/01/11 09:34:48;;;;;;;0.47;0.47;;;;;;;7.65;100.00;99971.94;6165330;28;20047;-86
2023/01/11 09:37:54;;;;;;;0.47;0.47;;;;;;;7.67;100.00;99970.03;6166080;28;20062;-86
2023/01/11 09:41:23;;;;;;;0.75;0.50;;;;;;;7.78;100.00;99958.94;6163976;28;20047;-86
2023/01/11 09:44:26;;;;;;;0.40;0.40;;;;;;;7.84;100.00;99960.22;6133252;28;20066;-85
2023/01/11 09:47:39;;;;;;;0.50;0.50;;;;;;;7.87;100.00;99958.19;6137024;28;20102;-86
2023/01/11 09:50:47;;;;;;;0.40;0.40;;;;;;;7.96;100.00;99954.13;6137827;28;20119;-86
2023/01/11 09:53:51;;;;;;;0.65;0.40;;;;;;;8.04;100.00;99943.22;6137134;28;20062;-86
2023/01/11 09:57:05;;;;;;;1.23;0.50;;;;;;;8.06;100.00;99933.59;6121054;28;20142;-86
2023/01/11 10:00:48;;;;;;;0.40;0.40;;;;;;;8.08;100.00;99940.28;6136978;28;20764;-85
2023/01/11 10:04:14;;;;;;;0.38;0.38;;;;;;;8.14;100.00;99947.50;6136656;28;20083;-85
2023/01/11 10:07:32;;;;;;;0.60;0.38;;;;;;;8.09;100.00;99951.41;6120017;28;20094;-86
2023/01/11 10:10:50;;;;;;;0.93;0.50;;;;;;;8.06;100.00;99959.38;6136367;28;20058;-86
2023/01/11 10:14:45;;;;;;;0.57;0.57;;;;;;;8.05;100.00;99956.00;6133317;28;20126;-86
2023/01/11 10:18:26;;;;;;;0.70;0.50;;;;;;;8.06;100.00;99947.31;6129190;28;20058;-86
2023/01/11 10:22:11;;;;;;;0.40;0.40;;;;;;;8.15;100.00;99938.88;6152171;28;20054;-86
2023/01/11 10:25:30;;;;;;;0.43;0.40;;;;;;;8.21;100.00;99945.28;6163350;28;20528;-87
2023/01/11 10:28:44;;;;;;;0.75;0.30;;;;;;;8.19;100.00;99942.00;6162214;28;20054;-86
2023/01/11 10:32:12;;;;;;;0.60;0.55;;;;;;;8.20;100.00;99943.66;6162306;28;20437;-86
2023/01/11 10:35:28;;;;;;;0.40;0.40;;;;;;;8.24;100.00;99937.31;6164512;28;20410;-86
2023/01/11 10:39:20;;;;;;;0.60;0.60;;;;;;;8.28;100.00;99936.13;6162735;28;20123;-86
2023/01/11 10:42:27;;;;;;;0.60;0.50;;;;;;;8.35;100.00;99926.16;6152879;28;20070;-86
2023/01/11 10:45:38;;;;;;;0.50;0.50;;;;;;;8.39;100.00;99912.06;6164715;28;20047;-86
2023/01/11 10:48:43;;;;;;;0.98;0.50;;;;;;;8.33;100.00;99918.53;6164146;28;20185;-86
2023/01/11 10:51:48;;;;;;;0.40;0.40;;;;;;;8.31;100.00;99929.91;6152970;28;20046;-86
2023/01/11 10:54:53;;;;;;;0.90;0.40;;;;;;;8.30;100.00;99936.03;6163816;28;20558;-86
2023/01/11 10:58:33;;;;;;;0.90;0.35;;;;;;;8.26;100.00;99932.84;6153360;28;20055;-87
2023/01/11 11:02:02;;;;;;;0.75;0.52;;;;;;;8.25;100.00;99946.69;6174554;28;20065;-87
2023/01/11 11:05:22;;;;;;;1.67;0.60;;;;;;;8.32;100.00;99942.69;6119796;28;20047;-87
2023/01/11 11:08:33;;;;;;;0.40;0.40;;;;;;;8.29;100.00;99950.66;6117566;28;20067;-86
2023/01/11 11:12:06;;;;;;;0.40;0.40;;;;;;;8.26;100.00;99950.91;6123904;28;20059;-87
2023/01/11 11:15:19;;;;;;;0.50;0.50;;;;;;;8.25;100.00;99957.00;6124334;28;20146;-87
2023/01/11 11:18:21;;;;;;;0.75;0.60;;;;;;;8.26;100.00;99953.47;6128998;28;20054;-86
2023/01/11 11:21:40;;;;;;;0.70;0.70;;;;;;;8.26;100.00;99948.31;6134482;28;20049;-86
2023/01/11 11:25:11;;;;;;;0.93;0.65;;;;;;;8.26;100.00;99948.31;6104383;28;20204;-87
2023/01/11 11:28:13;;;;;;;0.73;0.60;;;;;;;8.22;100.00;99959.00;6118412;28;20063;-86
2023/01/11 11:31:15;;;;;;;0.80;0.70;;;;;;;8.24;100.00;99951.97;6118888;28;20075;-86
2023/01/11 11:34:20;;;;;;;0.80;0.80;;;;;;;8.23;100.00;99958.06;6119139;28;20059;-87
2023/01/11 11:37:25;;;;;;;1.05;0.70;;;;;;;8.24;100.00;99957.13;6114346;28;20060;-87
2023/01/11 11:40:39;;;;;;;2.30;0.90;;;;;;;8.25;100.00;99964.75;6076993;29;20052;-86
2023/01/11 11:43:43;;;;;;;0.80;0.80;;;;;;;8.28;100.00;99961.91;6157477;28;20043;-86
2023/01/11 11:47:16;;;;;;;0.90;0.63;;;;;;;8.30;100.00;99965.19;6160777;28;20383;-86
2023/01/11 11:50:18;;;;;;;0.60;0.60;;;;;;;8.27;100.00;99991.19;6151788;28;20101;-87
2023/01/11 11:53:54;;;;;;;6.38;1.73;;;;;;;8.32;100.00;99999.44;6159436;28;20076;-84
2023/01/11 11:56:58;;;;;;;1.60;1.50;;;;;;;8.33;100.00;100010.56;6161670;28;20051;-85
2023/01/11 12:00:06;;;;;;;3.22;1.70;;;;;;;8.29;100.00;100020.28;6163479;28;20121;-84
2023/01/11 12:03:24;;;;;;;3.53;1.55;;;;;;;8.30;100.00;100014.19;6161903;28;20439;-85
2023/01/11 12:06:29;;;;;;;3.10;1.67;;;;;;;8.33;100.00;100024.25;6159952;28;20051;-86
2023/01/11 12:09:33;;;;;;;1.48;1.30;;;;;;;8.35;100.00;100017.22;6164014;28;20047;-86
2023/01/11 12:12:50;;;;;;;2.97;1.50;;;;;;;8.31;100.00;100013.25;6149677;28;20101;-86
2023/01/11 12:16:01;;;;;;;1.90;1.23;;;;;;;8.29;100.00;100011.72;6157924;28;20045;-86
2023/01/11 12:19:24;;;;;;;1.20;1.10;;;;;;;8.28;100.00;100008.34;6146798;28;20084;-87
2023/01/11 12:22:27;;;;;;;1.38;1.17;;;;;;;8.30;100.00;100006.47;6149164;28;20054;-88
2023/01/11 12:25:31;;;;;;;2.65;1.40;;;;;;;8.32;100.00;100004.59;6142576;28;20043;-88
2023/01/11 12:29:07;;;;;;;4.40;1.10;;;;;;;8.31;100.00;100008.09;6146837;28;20864;-88
2023/01/11 12:32:38;;;;;;;2.00;1.23;;;;;;;8.26;100.00;100015.34;6158472;28;20075;-88
2023/01/11 12:35:51;;;;;;;;;;;;;;;8.26;100.00;100006.81;6155024;28;20050;-88
2023/01/11 12:39:20;;;;;;;1.90;1.20;;;;;;;8.23;100.00;100009.63;6162987;28;19933;-89
2023/01/11 12:42:55;;;;;;;5.28;1.60;;;;;;;8.28;100.00;100008.34;6146509;28;20082;-89
2023/01/11 12:46:23;;;;;;;4.15;1.25;;;;;;;8.34;100.00;100032.81;6162117;28;20043;-89
2023/01/11 12:49:43;;;;;;;2.42;1.38;;;;;;;8.39;100.00;100023.81;6160834;28;20062;-89
2023/01/11 12:53:01;;;;;;;4.93;1.65;;;;;;;8.40;100.00;100029.81;6155358;28;20062;-90
2023/01/11 12:56:21;;;;;;;1.45;1.35;;;;;;;8.41;100.00;100039.16;6146824;28;20045;-90
2023/01/11 13:00:01;;;;;;;4.22;1.60;;;;;;;8.44;100.00;100038.09;6145657;28;20900;-91
2023/01/11 13:03:33;;;;;;;4.22;2.00;;;;;;;8.46;100.00;100047.38;6066896;29;20057;-91
2023/01/11 13:07:00;;;;;;;6.72;1.92;;;;;;;8.48;100.00;100044.69;6067453;29;20642;-91
2023/01/11 13:10:19;;;;;;;4.18;2.20;;;;;;;8.55;100.00;100040.69;6060114;29;20049;-90
2023/01/11 13:13:27;;;;;;;3.47;1.90;;;;;;;8.62;100.00;100034.06;6066249;29;20576;-90
2023/01/11 13:16:45;;;;;;;6.25;2.47;;;;;;;8.59;100.00;100035.13;6067448;29;20049;-89
2023/01/11 13:19:52;;;;;;;6.95;2.88;;;;;;;8.62;100.00;100027.19;6066598;29;20056;-90
2023/01/11 13:23:03;;;;;;;6.82;2.65;;;;;;;8.64;100.00;100019.31;6065326;29;20642;-90
2023/01/11 13:26:16;;;;;;;5.28;2.45;;;;;;;8.64;100.00;100014.16;6057939;29;20053;-90
2023/01/11 13:29:29;;;;;;;10.13;2.75;;;;;;;8.62;100.00;100005.69;6046241;29;20448;-90
2023/01/11 13:32:35;;;;;;;6.18;2.53;;;;;;;8.64;100.00;100021.88;6068403;29;20657;-89
2023/01/11 13:36:17;;;;;;;7.40;3.10;;;;;;;8.60;100.00;100025.66;6057818;29;20045;-89
2023/01/11 13:39:49;;;;;;;8.40;3.03;;;;;;;8.64;100.00;100037.38;6117334;28;20562;-89
2023/01/11 13:42:58;;;;;;;8.95;3.28;;;;;;;8.72;100.00;100040.19;6133529;28;20465;-88
2023/01/11 13:46:07;;;;;;;6.20;3.58;;;;;;;8.72;100.00;100041.91;6137259;28;20074;-89
2023/01/11 13:49:46;;;;;;;9.85;3.63;;;;;;;8.77;100.00;100037.22;6131295;28;20055;-88
2023/01/11 13:53:08;;;;;;;9.77;3.22;;;;;;;8.73;100.00;100046.97;6119417;28;20128;-88
2023/01/11 13:56:30;;;;;;;10.98;3.50;;;;;;;8.72;100.00;100047.91;6134921;28;20074;-87
2023/01/11 13:59:44;;;;;;;6.97;2.90;;;;;;;8.69;100.00;100053.31;6136495;28;20441;-87
2023/01/11 14:03:24;;;;;;;7.35;2.60;;;;;;;8.76;100.00;100035.59;6146449;28;20501;-87
2023/01/11 14:06:53;;;;;;;8.35;3.00;;;;;;;8.80;100.00;100042.97;6127494;28;20450;-86
2023/01/11 14:10:13;;;;;;;11.93;2.90;;;;;;;8.80;100.00;100042.16;6130109;28;20047;-87
2023/01/11 14:17:20;;;;;;;8.07;2.53;;;;;;;8.71;100.00;100048.03;6155757;28;20133;-86
2023/01/11 14:20:53;;;;;;;6.80;2.47;;;;;;;8.62;100.00;100057.28;6157120;28;20149;-86
2023/01/11 14:23:56;;;;;;;9.90;2.63;;;;;;;8.53;100.00;100065.78;6159072;28;20046;-86
2023/01/11 14:27:35;;;;;;;10.85;2.58;;;;;;;8.42;100.00;100064.00;6164698;28;20045;-86
2023/01/11 14:30:56;;;;;;;11.55;3.13;;;;;;;8.38;100.00;100075.50;6163096;28;20051;-86
2023/01/11 14:34:23;;;;;;;6.95;2.90;;;;;;;8.25;100.00;100087.66;6153135;28;20042;-85
2023/01/11 14:37:51;;;;;;;6.88;2.35;;;;;;;8.16;100.00;100082.28;6151043;28;20632;-86
2023/01/11 14:41:30;;;;;;;6.38;2.35;;;;;;;8.10;100.00;100093.06;6151273;28;20518;-85
2023/01/11 14:44:57;;;;;;;7.75;2.33;;;;;;;8.05;100.00;100100.31;6149316;28;20047;-85
2023/01/11 14:48:36;;;;;;;7.32;2.03;;;;;;;8.06;100.00;100101.97;6146605;28;20556;-85
2023/01/11 14:52:00;;;;;;;5.35;2.03;;;;;;;8.08;100.00;100088.97;6160774;28;20081;-85
2023/01/11 14:55:09;;;;;;;5.10;2.22;;;;;;;7.89;100.00;100085.19;6144537;28;20050;-85
2023/01/11 14:58:30;;;;;;;7.78;2.10;;;;;;;7.85;100.00;100088.09;6146014;28;20127;-85
2023/01/11 15:02:09;;;;;;;7.95;2.30;;;;;;;7.85;100.00;100094.09;6153502;28;20035;-85
2023/01/11 15:05:47;;;;;;;12.60;2.53;;;;;;;7.84;100.00;100095.00;6156216;28;20129;-86
2023/01/11 15:08:52;;;;;;;9.57;2.28;;;;;;;7.82;100.00;100088.31;6151703;28;20910;-85
2023/01/11 15:11:54;;;;;;;9.15;2.70;;;;;;;7.65;100.00;100097.31;6153322;28;20043;-85
2023/01/11 15:15:12;;;;;;;9.27;2.70;;;;;;;7.57;100.00;100110.75;6148041;28;20410;-85
2023/01/11 15:18:24;;;;;;;5.75;2.40;;;;;;;7.45;100.00;100109.91;6151521;28;20133;-85
2023/01/11 15:21:29;;;;;;;7.53;2.65;;;;;;;7.32;100.00;100117.66;6139061;28;20035;-85
2023/01/11 15:24:42;;;;;;;6.57;2.45;;;;;;;7.31;100.00;100133.25;6144124;28;20039;-85